Time;durP1;ratioP1;P1;durP2;ratioP2;P2;SDS_P1;SDS_P2;PMS_P1;PMS_P2;Temp;Humidity;BMP_temperature;BMP_pressure;BME280_temperature;BME280_humidity;BME280_pressure;Samples;Min_cycle;Max_cycle;Signal;HPM_P1;HPM_P2
2023/10/19 00:02:22;;;;;;;9.80;6.70;;;;;;;0.70;100.00;97228.64;110264;1241;58912;-59
2023/10/19 00:04:53;;;;;;;11.80;8.60;;;;;;;0.68;100.00;97227.86;110253;1241;58816;-60
2023/10/19 00:07:23;;;;;;;15.20;9.30;;;;;;;0.62;100.00;97226.33;110329;1241;70673;-58
2023/10/19 00:09:56;;;;;;;15.90;9.80;;;;;;;0.58;100.00;97226.15;110368;1241;69206;-62
2023/10/19 00:12:27;;;;;;;11.00;8.70;;;;;;;0.54;100.00;97225.79;110257;1241;68528;-59
2023/10/19 00:14:59;;;;;;;17.10;11.10;;;;;;;0.47;100.00;97220.52;110222;1241;58900;-58
2023/10/19 00:17:32;;;;;;;19.40;11.30;;;;;;;0.40;100.00;97220.92;110284;1241;58871;-58
2023/10/19 00:22:52;;;;;;;17.90;10.80;;;;;;;0.34;100.00;97218.95;110309;1244;69105;-59
2023/10/19 00:25:25;;;;;;;15.60;9.70;;;;;;;0.32;100.00;97219.70;110180;1240;68609;-61
2023/10/19 00:28:00;;;;;;;18.50;12.70;;;;;;;0.30;100.00;97216.35;110322;1241;58927;-61
2023/10/19 00:30:36;;;;;;;17.90;11.70;;;;;;;0.26;100.00;97218.17;110262;1241;58880;-60
2023/10/19 00:33:19;;;;;;;15.70;11.00;;;;;;;0.25;100.00;97213.61;110222;1241;71164;-59
2023/10/19 00:36:00;;;;;;;16.00;10.30;;;;;;;0.26;100.00;97217.15;110247;1239;67764;-59
2023/10/19 00:41:21;;;;;;;14.40;9.40;;;;;;;0.24;100.00;97218.41;110238;1243;58934;-60
2023/10/19 00:44:07;;;;;;;15.90;9.90;;;;;;;0.23;100.00;97215.02;110156;1242;58872;-59
2023/10/19 00:49:17;;;;;;;16.00;10.50;;;;;;;0.15;100.00;97217.38;110235;1239;68582;-60
2023/10/19 00:57:32;;;;;;;21.50;13.20;;;;;;;-0.14;100.00;97206.54;110168;1241;58938;-60
2023/10/19 01:00:20;;;;;;;18.10;11.80;;;;;;;-0.20;100.00;97201.41;110135;1240;70360;-58
2023/10/19 01:02:59;;;;;;;16.20;10.20;;;;;;;-0.21;100.00;97198.38;110287;1241;68284;-57
2023/10/19 01:05:36;;;;;;;15.70;9.10;;;;;;;-0.23;100.00;97196.90;110295;1241;69310;-60
2023/10/19 01:08:32;;;;;;;13.80;9.50;;;;;;;-0.24;100.00;97194.86;110284;1241;58939;-59
2023/10/19 01:11:04;;;;;;;12.90;9.20;;;;;;;-0.25;100.00;97194.91;110228;1240;58906;-59
2023/10/19 01:13:34;;;;;;;14.60;9.10;;;;;;;-0.25;100.00;97189.77;110293;1240;70575;-60
2023/10/19 01:16:20;;;;;;;12.10;7.10;;;;;;;-0.28;100.00;97186.61;110292;1241;68134;-61
2023/10/19 01:18:55;;;;;;;14.60;9.90;;;;;;;-0.30;100.00;97184.77;110256;1241;69761;-60
2023/10/19 01:21:37;;;;;;;13.10;7.60;;;;;;;-0.33;100.00;97180.62;110309;1239;58913;-61
2023/10/19 01:24:12;;;;;;;13.40;8.30;;;;;;;-0.35;100.00;97183.25;110250;1241;58888;-59
2023/10/19 01:26:42;;;;;;;15.60;10.40;;;;;;;-0.35;100.00;97180.17;110221;1241;69805;-59
2023/10/19 01:29:17;;;;;;;15.30;9.20;;;;;;;-0.37;100.00;97181.07;110303;1240;68801;-59
2023/10/19 01:31:55;;;;;;;14.20;10.00;;;;;;;-0.39;100.00;97182.52;110301;1240;67696;-58
2023/10/19 01:34:37;;;;;;;15.30;10.20;;;;;;;-0.41;100.00;97178.14;110265;1241;58890;-59
2023/10/19 01:37:07;;;;;;;13.10;9.10;;;;;;;-0.43;100.00;97176.50;110272;1241;58866;-59
2023/10/19 01:39:42;;;;;;;13.90;8.40;;;;;;;-0.45;100.00;97175.19;110178;1240;69662;-60
2023/10/19 01:42:12;;;;;;;12.30;7.30;;;;;;;-0.44;100.00;97172.58;110242;1240;67591;-58
2023/10/19 01:44:43;;;;;;;;;;;;;;;-0.44;100.00;97171.05;110254;1240;68519;-59
2023/10/19 01:47:24;;;;;;;13.90;7.70;;;;;;;-0.44;100.00;97170.89;110214;1241;58889;-58
2023/10/19 01:49:57;;;;;;;9.60;5.90;;;;;;;-0.46;100.00;97169.06;110300;1240;58865;-59
2023/10/19 01:52:28;;;;;;;9.40;6.30;;;;;;;-0.46;100.00;97167.02;110262;1239;69831;-58
2023/10/19 01:55:07;;;;;;;9.90;6.60;;;;;;;-0.45;100.00;97163.54;110155;1240;69661;-60
2023/10/19 01:57:39;;;;;;;12.80;7.70;;;;;;;-0.44;100.00;97156.00;110223;1241;69812;-58
2023/10/19 02:00:17;;;;;;;12.40;7.30;;;;;;;-0.45;100.00;97158.42;110234;1242;58880;-58
2023/10/19 02:02:50;;;;;;;13.10;7.30;;;;;;;-0.44;100.00;97157.17;110262;1241;58854;-59
2023/10/19 02:05:23;;;;;;;12.30;8.10;;;;;;;-0.45;100.00;97153.45;110181;1239;69968;-60
2023/10/19 02:07:54;;;;;;;11.60;7.60;;;;;;;-0.45;100.00;97148.50;110249;1239;69175;-59
2023/10/19 02:10:27;;;;;;;10.10;6.10;;;;;;;-0.45;100.00;97148.14;110222;1241;69278;-59
2023/10/19 02:12:58;;;;;;;10.90;7.50;;;;;;;-0.44;100.00;97146.72;110158;1240;58988;-59
2023/10/19 02:15:37;;;;;;;10.90;7.00;;;;;;;-0.42;100.00;97147.02;110312;1241;58883;-57
2023/10/19 02:18:11;;;;;;;11.50;7.30;;;;;;;-0.44;100.00;97144.48;110282;1241;69842;-60
2023/10/19 02:20:52;;;;;;;14.80;9.50;;;;;;;-0.45;100.00;97143.50;110358;1241;68283;-58
2023/10/19 02:23:23;;;;;;;13.40;8.40;;;;;;;-0.46;100.00;97142.86;110298;1241;69110;-60
2023/10/19 02:25:53;;;;;;;11.40;7.00;;;;;;;-0.47;100.00;97142.20;110284;1241;58961;-60
2023/10/19 02:28:31;;;;;;;;;;;;;;;-0.48;100.00;97142.77;110374;1241;58885;-58
2023/10/19 02:31:14;;;;;;;10.30;7.00;;;;;;;-0.49;100.00;97138.35;110278;1241;69951;-59
2023/10/19 02:33:46;;;;;;;12.50;7.40;;;;;;;-0.52;100.00;97135.02;110338;1241;68340;-60
2023/10/19 02:36:19;;;;;;;12.90;7.70;;;;;;;-0.55;100.00;97132.55;110235;1241;69295;-58
2023/10/19 02:38:52;;;;;;;11.20;8.10;;;;;;;-0.58;100.00;97126.98;110260;1241;59093;-59
2023/10/19 02:41:27;;;;;;;12.00;8.20;;;;;;;-0.59;100.00;97123.26;110296;1241;58861;-59
2023/10/19 02:44:09;;;;;;;12.00;7.40;;;;;;;-0.60;100.00;97116.09;110287;1241;70296;-60
2023/10/19 02:46:44;;;;;;;11.90;7.30;;;;;;;-0.57;100.00;97116.50;110295;1241;69361;-60
2023/10/19 02:49:22;;;;;;;13.20;7.80;;;;;;;-0.55;100.00;97115.59;110241;1241;69307;-58
2023/10/19 02:51:53;;;;;;;12.10;8.30;;;;;;;-0.53;100.00;97112.59;110236;1241;58937;-59
2023/10/19 02:54:27;;;;;;;11.30;8.10;;;;;;;-0.50;100.00;97113.55;110259;1241;58889;-60
2023/10/19 02:56:59;;;;;;;14.00;9.50;;;;;;;-0.49;100.00;97112.32;110151;1242;70693;-59
2023/10/19 02:59:33;;;;;;;15.40;8.90;;;;;;;-0.49;100.00;97106.16;110230;1241;69252;-59
2023/10/19 03:04:41;;;;;;;12.90;8.40;;;;;;;-0.51;100.00;97102.11;110306;1241;58897;-59
2023/10/19 03:07:15;;;;;;;14.70;8.90;;;;;;;-0.52;100.00;97095.98;110265;1241;58818;-60
2023/10/19 03:09:48;;;;;;;12.20;7.80;;;;;;;-0.52;100.00;97094.27;110234;1240;69884;-59
2023/10/19 03:12:21;;;;;;;10.10;6.50;;;;;;;-0.51;100.00;97097.16;110293;1240;68520;-59
2023/10/19 03:14:52;;;;;;;9.70;5.70;;;;;;;-0.54;100.00;97090.23;110161;1243;69295;-59
2023/10/19 03:17:25;;;;;;;11.30;8.00;;;;;;;-0.56;100.00;97088.24;110212;1239;58962;-59
2023/10/19 03:19:56;;;;;;;11.50;7.40;;;;;;;-0.57;100.00;97090.46;110264;1241;58826;-60
2023/10/19 03:22:27;;;;;;;14.00;9.10;;;;;;;-0.58;100.00;97084.02;110293;1241;70571;-58
2023/10/19 03:27:47;;;;;;;12.70;7.90;;;;;;;-0.57;100.00;97083.80;110279;1239;67556;-59
2023/10/19 03:30:19;;;;;;;;;;;;;;;-0.56;100.00;97080.70;110178;1242;58858;-59
2023/10/19 03:32:49;;;;;;;11.40;7.20;;;;;;;-0.59;100.00;97080.64;110260;1241;58900;-59
2023/10/19 03:35:21;;;;;;;12.30;7.70;;;;;;;-0.66;100.00;97077.63;110226;1241;69777;-60
2023/10/19 03:37:52;;;;;;;15.80;9.70;;;;;;;-0.72;100.00;97080.57;110251;1240;68904;-59
2023/10/19 03:40:31;;;;;;;13.00;8.30;;;;;;;-0.79;100.00;97079.08;110236;1241;69096;-59
2023/10/19 03:43:08;;;;;;;13.60;7.70;;;;;;;-0.86;100.00;97076.07;110225;1242;58929;-59
2023/10/19 03:45:44;;;;;;;13.10;7.90;;;;;;;-0.95;100.00;97072.41;110277;1239;58948;-59
2023/10/19 03:48:16;;;;;;;12.00;8.40;;;;;;;-1.03;100.00;97067.52;110208;1243;69848;-59
2023/10/19 03:50:51;;;;;;;15.30;10.60;;;;;;;-1.07;100.00;97063.90;110249;1241;67527;-60
2023/10/19 03:53:23;;;;;;;14.00;8.60;;;;;;;-1.13;100.00;97067.16;110234;1241;68528;-60
2023/10/19 03:55:54;;;;;;;12.90;8.80;;;;;;;-1.19;100.00;97060.52;110266;1240;58907;-58
2023/10/19 03:58:30;;;;;;;13.00;7.10;;;;;;;-1.21;100.00;97058.03;110250;1240;58932;-60
2023/10/19 04:01:04;;;;;;;12.40;8.30;;;;;;;-1.23;100.00;97055.38;110242;1241;70606;-59
2023/10/19 04:03:36;;;;;;;20.10;10.20;;;;;;;-1.26;100.00;97051.66;110264;1241;69255;-59
2023/10/19 04:06:13;;;;;;;14.10;10.70;;;;;;;-1.29;100.00;97047.66;110215;1240;68329;-58
2023/10/19 04:08:50;;;;;;;14.10;10.70;;;;;;;-1.31;100.00;97042.61;110283;1242;58927;-59
2023/10/19 04:11:22;;;;;;;15.70;10.30;;;;;;;-1.35;100.00;97039.47;110301;1241;58872;-59
2023/10/19 04:13:53;;;;;;;14.10;10.50;;;;;;;-1.38;100.00;97036.16;110269;1241;69856;-59
2023/10/19 04:16:22;;;;;;;15.10;9.20;;;;;;;-1.42;100.00;97034.23;110229;1240;69059;-59
2023/10/19 04:18:54;;;;;;;;;;;;;;;-1.44;100.00;97030.02;110246;1241;68898;-57
2023/10/19 04:21:24;;;;;;;11.40;8.40;;;;;;;-1.47;100.00;97032.85;110230;1240;58920;-60
2023/10/19 04:23:56;;;;;;;;;;;;;;;-1.49;100.00;97030.36;110334;1241;58900;-61
2023/10/19 04:26:28;;;;;;;12.20;7.60;;;;;;;-1.51;100.00;97030.78;110320;1239;70443;-61
2023/10/19 04:28:59;;;;;;;16.00;10.80;;;;;;;-1.54;100.00;97022.13;110280;1239;69930;-60
2023/10/19 04:31:30;;;;;;;20.30;13.70;;;;;;;-1.54;100.00;97018.89;110276;1240;68261;-58
2023/10/19 04:34:06;;;;;;;15.80;11.50;;;;;;;-1.54;100.00;97018.53;110290;1241;58930;-60
2023/10/19 04:36:39;;;;;;;12.80;9.60;;;;;;;-1.53;100.00;97021.08;110279;1240;58859;-59
2023/10/19 04:39:13;;;;;;;13.80;9.00;;;;;;;-1.55;100.00;97024.21;110288;1240;70621;-59
2023/10/19 04:41:44;;;;;;;14.00;9.30;;;;;;;-1.57;100.00;97027.69;110224;1239;68590;-61
2023/10/19 04:44:16;;;;;;;14.70;9.10;;;;;;;-1.58;100.00;97029.58;110208;1241;69385;-60
2023/10/19 04:46:47;;;;;;;16.10;9.80;;;;;;;-1.57;100.00;97031.44;110190;1241;58872;-60
2023/10/19 04:49:18;;;;;;;12.90;9.60;;;;;;;-1.55;100.00;97032.73;110229;1240;58871;-58
2023/10/19 04:51:47;;;;;;;16.80;10.50;;;;;;;-1.53;100.00;97032.86;110292;1241;70562;-59
2023/10/19 04:54:17;;;;;;;17.00;11.50;;;;;;;-1.48;100.00;97035.95;110294;1241;69188;-58
2023/10/19 04:56:48;;;;;;;18.40;12.30;;;;;;;-1.43;100.00;97037.19;110281;1240;68534;-59
2023/10/19 04:59:17;;;;;;;16.20;11.60;;;;;;;-1.43;100.00;97035.96;110278;1241;58871;-58
2023/10/19 05:01:47;;;;;;;15.00;9.90;;;;;;;-1.42;100.00;97036.12;110243;1240;58897;-59
2023/10/19 05:04:17;;;;;;;16.40;12.20;;;;;;;-1.41;100.00;97035.57;110213;1241;69866;-59
2023/10/19 05:06:46;;;;;;;;;;;;;;;-1.40;100.00;97031.24;110244;1240;69856;-59
2023/10/19 05:09:16;;;;;;;13.30;8.90;;;;;;;-1.37;100.00;97029.48;110208;1239;68556;-59
2023/10/19 05:11:46;;;;;;;11.60;9.10;;;;;;;-1.36;100.00;97029.27;110251;1241;58879;-60
2023/10/19 05:14:15;;;;;;;14.40;9.30;;;;;;;-1.32;100.00;97031.37;110237;1239;58926;-59
2023/10/19 05:16:45;;;;;;;13.40;9.00;;;;;;;-1.24;100.00;97031.79;110289;1240;71236;-57
2023/10/19 05:19:16;;;;;;;13.90;9.00;;;;;;;-1.15;100.00;97032.52;110220;1241;69646;-58
2023/10/19 05:21:46;;;;;;;13.10;8.60;;;;;;;-1.06;100.00;97036.33;110257;1241;68413;-59
2023/10/19 05:24:15;;;;;;;12.30;8.70;;;;;;;-0.97;100.00;97038.77;110209;1241;58906;-58
2023/10/19 05:26:48;;;;;;;12.10;8.20;;;;;;;-0.90;100.00;97041.28;110334;1241;58951;-60
2023/10/19 05:29:18;;;;;;;13.10;7.90;;;;;;;-0.85;100.00;97042.48;110300;1241;71069;-59
2023/10/19 05:31:53;;;;;;;11.60;7.30;;;;;;;-0.76;100.00;97037.57;110236;1241;70162;-61
2023/10/19 05:34:24;;;;;;;13.30;8.60;;;;;;;-0.67;100.00;97039.64;110307;1241;69222;-60
2023/10/19 05:36:54;;;;;;;14.20;9.20;;;;;;;-0.52;100.00;97037.10;110244;1240;58949;-59
2023/10/19 05:39:27;;;;;;;13.20;7.60;;;;;;;-0.39;100.00;97034.77;110304;1241;58891;-59
2023/10/19 05:42:00;;;;;;;10.40;7.10;;;;;;;-0.26;100.00;97035.15;110280;1241;69997;-59
2023/10/19 05:44:30;;;;;;;11.20;7.60;;;;;;;-0.15;100.00;97036.14;110226;1241;69741;-61
2023/10/19 05:47:02;;;;;;;10.50;7.20;;;;;;;-0.07;100.00;97032.55;110214;1241;67921;-58
2023/10/19 05:49:33;;;;;;;11.10;7.90;;;;;;;0.08;100.00;97030.16;110222;1241;58918;-59
2023/10/19 05:52:03;;;;;;;11.40;7.60;;;;;;;0.21;100.00;97027.09;110273;1240;58887;-60
2023/10/19 05:54:33;;;;;;;13.60;8.90;;;;;;;0.32;100.00;97033.37;110198;1241;70602;-60
2023/10/19 05:57:07;;;;;;;;;;;;;;;0.47;100.00;97035.02;110286;1239;69316;-59
2023/10/19 05:59:36;;;;;;;14.60;9.20;;;;;;;0.61;100.00;97032.60;110274;1241;69832;-60
2023/10/19 06:02:07;;;;;;;17.20;12.40;;;;;;;0.73;100.00;97025.59;110275;1240;58866;-60
2023/10/19 06:04:37;;;;;;;23.00;15.80;;;;;;;0.90;100.00;97024.92;110263;1241;58967;-60
2023/10/19 06:07:07;;;;;;;17.30;12.20;;;;;;;1.19;100.00;97026.48;110265;1240;70620;-60
2023/10/19 06:09:38;;;;;;;;;;;;;;;1.64;100.00;97023.88;110279;1246;68626;-60
2023/10/19 06:12:09;;;;;;;17.90;11.50;;;;;;;2.15;100.00;97017.46;110309;1241;69847;-60
2023/10/19 06:14:39;;;;;;;18.20;11.70;;;;;;;2.72;100.00;97019.83;110306;1241;58935;-60
2023/10/19 06:17:08;;;;;;;20.60;15.00;;;;;;;3.32;100.00;97021.70;110297;1241;58878;-61
2023/10/19 06:19:38;;;;;;;22.30;15.20;;;;;;;3.93;99.93;97018.41;110207;1240;71172;-61
2023/10/19 06:22:08;;;;;;;22.70;15.50;;;;;;;4.56;96.98;97005.18;110345;1240;69282;-62
2023/10/19 06:24:37;;;;;;;28.80;17.90;;;;;;;5.10;96.56;97004.74;110312;1241;69856;-62
2023/10/19 06:27:06;;;;;;;27.10;19.00;;;;;;;5.59;91.77;97013.52;110265;1241;58867;-60
2023/10/19 06:29:38;;;;;;;27.30;18.00;;;;;;;6.28;94.77;97009.34;110321;1242;58867;-60
2023/10/19 06:32:09;;;;;;;24.00;17.70;;;;;;;6.83;93.35;97006.03;110331;1240;71114;-62
2023/10/19 06:34:39;;;;;;;26.10;18.80;;;;;;;7.28;93.36;97008.54;110331;1239;68131;-60
2023/10/19 06:37:10;;;;;;;25.50;18.10;;;;;;;7.18;82.16;97007.93;110341;1239;69860;-60
2023/10/19 06:39:42;;;;;;;23.50;17.20;;;;;;;6.83;83.81;97006.60;110294;1241;58846;-60
2023/10/19 06:42:14;;;;;;;23.00;17.30;;;;;;;6.47;82.64;97004.67;110352;1241;58936;-60
2023/10/19 06:44:44;;;;;;;22.70;16.20;;;;;;;6.31;83.37;97004.29;110308;1239;70577;-62
2023/10/19 06:47:13;;;;;;;19.10;15.50;;;;;;;6.25;85.87;97008.67;110299;1241;70266;-61
2023/10/19 06:49:43;;;;;;;;;;;;;;;6.39;86.46;97007.42;110279;1240;69866;-61
2023/10/19 06:52:12;;;;;;;17.70;13.80;;;;;;;6.53;84.65;97003.99;110309;1241;58899;-60
2023/10/19 06:54:42;;;;;;;19.80;15.90;;;;;;;7.00;82.75;96999.22;110225;1244;58930;-60
2023/10/19 06:57:12;;;;;;;17.50;13.00;;;;;;;7.54;84.42;96998.06;110337;1241;71074;-61
2023/10/19 06:59:41;;;;;;;15.90;12.20;;;;;;;8.11;79.71;96994.02;110303;1241;67519;-61
2023/10/19 07:02:12;;;;;;;17.70;13.50;;;;;;;8.38;76.16;96987.77;110243;1241;69492;-61
2023/10/19 07:04:42;;;;;;;16.20;13.70;;;;;;;8.44;74.78;96988.97;110240;1241;58922;-61
2023/10/19 07:07:11;;;;;;;14.60;12.10;;;;;;;9.12;72.88;96980.39;110224;1241;58915;-62
2023/10/19 07:09:41;;;;;;;13.30;11.40;;;;;;;9.72;69.36;96979.05;110247;1241;71002;-62
2023/10/19 07:12:11;;;;;;;12.80;10.50;;;;;;;10.25;68.55;96976.19;110281;1239;68553;-60
2023/10/19 07:14:42;;;;;;;15.20;11.00;;;;;;;10.22;67.44;96972.59;110289;1241;69273;-60
2023/10/19 07:17:12;;;;;;;15.10;10.90;;;;;;;10.65;66.52;96971.44;110248;1239;58938;-61
2023/10/19 07:19:48;;;;;;;14.90;9.90;;;;;;;10.87;66.44;96971.25;110312;1241;58862;-60
2023/10/19 07:22:22;;;;;;;15.90;10.50;;;;;;;11.08;65.34;96973.92;110277;1241;70433;-60
2023/10/19 07:24:52;;;;;;;16.60;11.20;;;;;;;11.54;64.74;96973.77;110309;1241;69649;-60
2023/10/19 07:27:21;;;;;;;13.90;9.50;;;;;;;11.86;62.43;96970.55;110273;1241;69287;-60
2023/10/19 07:30:09;;;;;;;13.00;9.40;;;;;;;11.56;62.07;96975.88;110236;1241;58931;-60
2023/10/19 07:32:38;;;;;;;10.90;7.80;;;;;;;11.32;62.54;96966.90;110322;1239;58862;-60
2023/10/19 07:35:08;;;;;;;;;;;;;;;10.77;64.18;96954.77;110222;1241;70215;-60
2023/10/19 07:37:38;;;;;;;9.30;6.60;;;;;;;10.66;65.36;96949.23;110312;1241;69655;-60
2023/10/19 07:40:13;;;;;;;;;;;;;;;10.58;64.36;96946.90;110246;1241;69868;-60
2023/10/19 07:42:42;;;;;;;7.10;5.20;;;;;;;10.16;63.11;96937.19;110225;1241;58887;-61
2023/10/19 07:45:12;;;;;;;9.00;6.30;;;;;;;10.03;63.87;96933.64;110329;1242;58885;-60
2023/10/19 07:47:42;;;;;;;7.30;5.90;;;;;;;9.73;66.36;96932.68;110267;1241;71154;-60
2023/10/19 07:50:15;;;;;;;7.00;5.00;;;;;;;9.55;69.07;96941.69;110266;1241;69907;-60
2023/10/19 07:52:48;;;;;;;8.90;6.40;;;;;;;9.70;68.29;96945.27;110258;1240;69933;-62
2023/10/19 07:55:18;;;;;;;9.50;7.20;;;;;;;10.02;68.13;96949.58;110244;1241;58868;-59
2023/10/19 07:57:50;;;;;;;8.70;6.20;;;;;;;10.12;68.61;96950.17;110265;1241;58940;-59
2023/10/19 08:00:20;;;;;;;7.20;6.00;;;;;;;9.99;69.65;96952.44;110272;1240;70601;-60
2023/10/19 08:02:51;;;;;;;9.50;6.70;;;;;;;10.09;68.55;96949.00;110230;1240;69729;-61
2023/10/19 08:05:21;;;;;;;9.00;7.10;;;;;;;10.04;68.34;96945.22;110224;1241;69847;-60
2023/10/19 08:07:52;;;;;;;9.00;6.60;;;;;;;10.09;67.71;96935.98;110297;1241;58899;-60
2023/10/19 08:10:21;;;;;;;;;;;;;;;10.10;68.39;96943.23;110344;1240;58846;-61
2023/10/19 08:12:52;;;;;;;9.30;7.00;;;;;;;10.05;68.35;96943.23;110246;1240;71192;-61
2023/10/19 08:15:21;;;;;;;9.30;7.20;;;;;;;10.16;67.54;96942.58;110306;1242;69853;-60
2023/10/19 08:17:53;;;;;;;;;;;;;;;9.95;67.86;96948.38;110329;1241;69193;-61
2023/10/19 08:20:23;;;;;;;8.60;6.70;;;;;;;9.96;69.13;96949.88;110311;1239;58897;-62
2023/10/19 08:22:56;;;;;;;10.70;7.00;;;;;;;9.84;69.21;96949.09;110257;1241;58928;-60
2023/10/19 08:25:29;;;;;;;9.80;7.60;;;;;;;9.85;68.74;96945.65;110307;1241;70734;-60
2023/10/19 08:28:02;;;;;;;8.90;6.10;;;;;;;9.78;67.97;96944.67;110298;1241;69702;-62
2023/10/19 08:30:34;;;;;;;8.40;6.00;;;;;;;9.57;68.01;96940.67;110295;1241;69903;-62
2023/10/19 08:33:03;;;;;;;10.00;7.00;;;;;;;9.46;68.89;96931.76;110283;1239;58900;-63
2023/10/19 08:35:35;;;;;;;13.20;7.40;;;;;;;9.50;68.93;96927.96;110362;1241;58799;-61
2023/10/19 08:38:11;;;;;;;8.30;6.80;;;;;;;9.54;69.44;96920.23;110328;1241;70871;-61
2023/10/19 08:40:40;;;;;;;13.70;8.40;;;;;;;9.64;69.64;96921.20;110247;1241;69290;-61
2023/10/19 08:43:17;;;;;;;10.30;6.90;;;;;;;9.80;69.72;96918.42;110265;1241;69846;-61
2023/10/19 08:45:47;;;;;;;11.10;7.20;;;;;;;9.87;69.18;96910.85;110277;1241;58957;-61
2023/10/19 08:48:17;;;;;;;9.10;5.90;;;;;;;9.92;69.84;96908.92;110294;1241;58878;-60
2023/10/19 08:50:48;;;;;;;9.70;6.20;;;;;;;10.00;69.44;96906.89;110301;1241;71147;-60
2023/10/19 08:53:20;;;;;;;9.70;7.10;;;;;;;10.01;68.79;96903.72;110322;1241;69507;-61
2023/10/19 08:55:50;;;;;;;11.40;7.00;;;;;;;10.09;68.83;96907.80;110310;1241;69317;-59
2023/10/19 08:58:22;;;;;;;9.00;6.50;;;;;;;10.07;69.00;96903.90;110262;1239;58921;-61
2023/10/19 09:00:54;;;;;;;10.70;7.70;;;;;;;10.09;69.22;96904.77;110351;1241;58821;-61
2023/10/19 09:03:25;;;;;;;9.90;7.30;;;;;;;10.18;68.39;96904.63;110293;1241;70392;-61
2023/10/19 09:05:56;;;;;;;7.70;5.70;;;;;;;10.17;69.12;96904.70;110262;1241;68523;-62
2023/10/19 09:08:26;;;;;;;7.10;5.50;;;;;;;10.37;70.27;96906.81;110262;1241;69782;-60
2023/10/19 09:10:56;;;;;;;6.80;5.50;;;;;;;10.58;70.01;96907.04;110268;1241;58922;-60
2023/10/19 09:13:26;;;;;;;7.70;6.20;;;;;;;10.76;69.55;96903.84;110257;1241;58879;-60
2023/10/19 09:16:05;;;;;;;6.40;5.20;;;;;;;10.97;68.31;96904.86;110276;1239;69752;-60
2023/10/19 09:18:35;;;;;;;7.20;5.10;;;;;;;11.11;67.38;96905.96;109884;1240;531880;-60
2023/10/19 09:21:07;;;;;;;7.50;5.50;;;;;;;11.15;66.74;96899.74;110226;1241;69848;-60
2023/10/19 09:23:38;;;;;;;5.80;4.60;;;;;;;11.19;66.49;96892.96;110333;1241;58902;-60
2023/10/19 09:26:07;;;;;;;7.90;5.50;;;;;;;11.25;66.98;96889.33;110281;1241;58875;-61
2023/10/19 09:28:37;;;;;;;;;;;;;;;11.31;66.99;96885.48;110297;1241;70619;-60
2023/10/19 09:31:09;;;;;;;;;;;;;;;11.33;66.82;96877.63;110294;1241;68685;-62
2023/10/19 09:33:44;;;;;;;9.40;6.60;;;;;;;11.35;66.49;96877.98;110269;1241;69853;-61
2023/10/19 09:36:14;;;;;;;9.40;5.70;;;;;;;11.33;66.58;96875.03;110276;1244;58863;-61
2023/10/19 09:38:51;;;;;;;7.80;5.20;;;;;;;11.30;67.27;96875.94;110282;1241;58944;-60
2023/10/19 09:41:22;;;;;;;8.40;5.50;;;;;;;11.29;67.36;96874.86;110253;1241;71175;-61
2023/10/19 09:43:54;;;;;;;8.30;6.00;;;;;;;11.36;67.51;96871.47;110189;1242;69384;-61
2023/10/19 09:46:31;;;;;;;8.20;5.90;;;;;;;11.44;67.27;96867.98;110227;1239;68295;-61
2023/10/19 09:49:00;;;;;;;6.70;5.80;;;;;;;11.49;67.95;96861.27;110241;1241;58936;-62
2023/10/19 09:51:32;;;;;;;;;;;;;;;11.57;66.59;96861.63;110264;1248;58890;-62
2023/10/19 09:54:13;;;;;;;5.80;5.10;;;;;;;11.63;66.58;96857.84;110222;1239;70607;-61
2023/10/19 09:56:49;;;;;;;5.40;4.80;;;;;;;11.65;65.88;96853.78;110325;1241;69185;-61
2023/10/19 09:59:31;;;;;;;7.00;4.60;;;;;;;11.81;65.59;96852.08;110235;1241;69913;-59
2023/10/19 10:02:12;;;;;;;5.60;4.40;;;;;;;11.96;65.34;96849.72;110234;1241;58879;-60
2023/10/19 10:04:47;;;;;;;4.70;3.90;;;;;;;12.12;65.07;96843.77;110262;1241;58884;-60
2023/10/19 10:07:17;;;;;;;5.90;5.00;;;;;;;12.24;63.81;96839.98;110294;1241;70243;-60
2023/10/19 10:10:08;;;;;;;5.50;4.50;;;;;;;12.34;63.87;96833.20;110254;1246;69974;-61
2023/10/19 10:12:39;;;;;;;5.30;4.40;;;;;;;12.47;64.30;96829.17;110239;1241;68660;-60
2023/10/19 10:15:09;;;;;;;;;;;;;;;12.65;63.68;96826.97;110277;1241;58929;-60
2023/10/19 10:17:39;;;;;;;5.10;3.70;;;;;;;12.82;62.97;96818.81;110293;1242;58854;-59
2023/10/19 10:20:18;;;;;;;5.50;4.70;;;;;;;12.89;61.98;96815.44;110254;1240;71217;-61
2023/10/19 10:23:16;;;;;;;5.30;3.90;;;;;;;12.98;61.29;96815.95;110247;1242;69199;-61
2023/10/19 10:25:49;;;;;;;6.30;4.60;;;;;;;13.06;61.98;96814.76;110269;1241;67395;-61
2023/10/19 10:28:19;;;;;;;4.90;3.80;;;;;;;13.09;61.37;96817.36;110247;1242;58933;-61
2023/10/19 10:31:20;;;;;;;5.10;3.80;;;;;;;13.16;60.12;96816.77;110227;1242;58869;-61
2023/10/19 10:34:00;;;;;;;5.20;4.30;;;;;;;13.20;60.16;96812.02;110277;1239;71070;-60
2023/10/19 10:36:48;;;;;;;;;;;;;;;13.28;59.55;96800.83;110329;1240;69148;-59
2023/10/19 10:39:23;;;;;;;5.40;3.30;;;;;;;13.42;60.50;96792.30;110261;1242;68857;-60
2023/10/19 10:42:03;;;;;;;5.10;4.20;;;;;;;13.43;59.11;96788.55;110251;1241;58873;-59
2023/10/19 10:45:05;;;;;;;5.20;3.90;;;;;;;13.34;59.66;96783.27;110265;1241;58825;-60
2023/10/19 10:47:36;;;;;;;4.90;4.00;;;;;;;13.40;60.44;96775.52;110163;1241;71330;-60
2023/10/19 10:50:06;;;;;;;6.20;4.60;;;;;;;13.50;59.38;96773.69;110274;1241;69029;-61
2023/10/19 10:52:37;;;;;;;7.50;4.40;;;;;;;13.53;58.95;96768.02;110265;1241;69924;-60
2023/10/19 10:55:14;;;;;;;6.30;4.70;;;;;;;13.68;58.87;96759.66;110314;1241;58948;-61
2023/10/19 10:57:44;;;;;;;7.30;4.50;;;;;;;13.81;58.90;96753.60;110290;1241;58886;-61
2023/10/19 11:00:15;;;;;;;5.90;4.10;;;;;;;13.96;58.26;96753.70;110261;1241;71157;-60
2023/10/19 11:02:59;;;;;;;4.40;3.40;;;;;;;14.15;56.90;96753.29;110223;1241;69715;-60
2023/10/19 11:05:28;;;;;;;5.50;3.90;;;;;;;14.37;56.63;96756.38;110225;1241;69258;-62
2023/10/19 11:08:16;;;;;;;5.80;3.80;;;;;;;14.53;56.35;96753.56;110268;1242;58890;-62
2023/10/19 11:10:47;;;;;;;4.90;3.80;;;;;;;14.64;55.55;96748.29;110303;1241;58903;-61
2023/10/19 11:13:16;;;;;;;;;;;;;;;14.75;54.76;96742.45;110292;1241;70624;-61
2023/10/19 11:15:52;;;;;;;3.90;3.50;;;;;;;15.00;55.37;96734.46;110361;1241;68697;-61
2023/10/19 11:18:39;;;;;;;5.40;3.50;;;;;;;15.34;54.75;96728.89;110281;1241;69776;-62
2023/10/19 11:21:10;;;;;;;6.50;3.90;;;;;;;15.66;53.95;96723.95;110261;1242;58913;-61
2023/10/19 11:23:42;;;;;;;4.80;3.80;;;;;;;15.79;52.95;96723.05;110301;1241;58935;-61
2023/10/19 11:26:13;;;;;;;4.70;3.60;;;;;;;15.97;51.55;96722.70;110279;1241;70450;-60
2023/10/19 11:28:44;;;;;;;5.80;4.30;;;;;;;16.15;51.98;96721.31;110247;1241;69727;-60
2023/10/19 11:31:19;;;;;;;5.20;3.80;;;;;;;16.14;51.37;96718.61;110255;1241;69309;-60
2023/10/19 11:33:51;;;;;;;4.60;3.60;;;;;;;16.12;51.16;96710.10;110230;1241;58932;-62
2023/10/19 11:36:22;;;;;;;4.70;3.40;;;;;;;16.29;51.82;96697.86;110226;1239;58912;-59
2023/10/19 11:38:52;;;;;;;5.00;3.50;;;;;;;16.54;51.29;96690.64;110134;1242;70994;-61
2023/10/19 11:41:23;;;;;;;5.90;4.80;;;;;;;17.11;50.15;96677.64;110225;1241;69663;-60
2023/10/19 11:43:52;;;;;;;5.60;3.70;;;;;;;17.85;49.32;96673.55;110269;1240;69712;-62
2023/10/19 11:46:25;;;;;;;4.90;3.10;;;;;;;19.00;49.00;96666.72;110294;1241;59002;-60
2023/10/19 11:48:56;;;;;;;4.10;3.50;;;;;;;19.68;47.16;96666.80;110337;1240;58885;-60
2023/10/19 11:51:26;;;;;;;5.70;3.50;;;;;;;19.85;44.82;96665.41;110291;1241;71099;-60
2023/10/19 11:53:56;;;;;;;3.90;3.00;;;;;;;20.02;43.74;96662.20;110269;1241;68548;-59
2023/10/19 11:56:25;;;;;;;4.40;3.30;;;;;;;20.16;44.77;96652.38;110192;1241;68895;-60
2023/10/19 11:58:54;;;;;;;4.90;3.00;;;;;;;20.43;43.68;96647.89;110236;1241;58934;-60
2023/10/19 12:01:24;;;;;;;4.40;3.20;;;;;;;20.76;41.39;96644.33;110274;1242;58932;-59
2023/10/19 12:03:55;;;;;;;5.20;3.80;;;;;;;21.02;40.13;96647.89;110257;1241;70559;-60
2023/10/19 12:06:25;;;;;;;5.30;3.70;;;;;;;21.06;40.58;96640.70;110265;1239;69269;-59
2023/10/19 12:08:58;;;;;;;4.30;3.90;;;;;;;20.90;39.70;96636.92;110246;1239;70246;-60